createdAt,value
2023-04-18T00:00:49.778Z,14.45
2023-04-18T00:03:17.663Z,14.02
2023-04-18T00:05:48.322Z,14.50
2023-04-18T00:08:16.059Z,14.20
2023-04-18T00:10:43.775Z,14.71
2023-04-18T00:13:12.102Z,14.32
2023-04-18T00:15:39.622Z,14.26
2023-04-18T00:18:08.476Z,14.63
2023-04-18T00:20:38.957Z,14.58
2023-04-18T00:23:07.815Z,14.93
2023-04-18T00:25:37.282Z,15.25
2023-04-18T00:28:04.710Z,15.18
2023-04-18T00:30:33.717Z,15.11
2023-04-18T00:33:01.479Z,15.40
2023-04-18T00:35:28.930Z,15.53
2023-04-18T00:37:56.593Z,14.57
2023-04-18T00:40:24.584Z,14.49
2023-04-18T00:42:51.981Z,14.61
2023-04-18T00:45:19.648Z,14.36
2023-04-18T00:47:47.059Z,14.18
2023-04-18T00:50:14.853Z,13.83
2023-04-18T00:52:44.342Z,13.53
2023-04-18T00:55:11.894Z,13.63
2023-04-18T00:57:39.312Z,13.38
2023-04-18T01:00:10.451Z,14.08
2023-04-18T01:02:39.766Z,13.69
2023-04-18T01:05:08.221Z,13.80
2023-04-18T01:07:37.387Z,13.66
2023-04-18T01:10:05.262Z,13.45
2023-04-18T01:12:32.923Z,13.71
2023-04-18T01:15:00.785Z,13.76
2023-04-18T01:17:29.736Z,13.61
2023-04-18T01:19:57.981Z,13.75
2023-04-18T01:22:30.895Z,13.61
2023-04-18T01:24:59.840Z,14.01
2023-04-18T01:27:27.276Z,13.76
2023-04-18T01:29:54.667Z,13.77
2023-04-18T01:32:22.396Z,13.74
2023-04-18T01:34:49.922Z,13.52
2023-04-18T01:37:17.661Z,13.49
2023-04-18T01:39:45.338Z,13.47
2023-04-18T01:42:12.737Z,13.50
2023-04-18T01:44:40.069Z,13.50
2023-04-18T01:47:07.674Z,13.68
2023-04-18T01:49:35.093Z,13.50
2023-04-18T01:52:02.500Z,13.56
2023-04-18T01:54:30.272Z,13.48
2023-04-18T01:56:57.688Z,13.57
2023-04-18T01:59:25.244Z,13.76
2023-04-18T02:01:52.993Z,13.68
2023-04-18T02:04:20.754Z,13.68
2023-04-18T02:06:48.210Z,13.83
2023-04-18T02:09:15.654Z,13.45
2023-04-18T02:11:43.624Z,13.34
2023-04-18T02:14:11.091Z,13.04
2023-04-18T02:16:38.982Z,12.94
2023-04-18T02:19:06.436Z,13.20
2023-04-18T02:21:34.806Z,13.08
2023-04-18T02:24:02.512Z,13.30
2023-04-18T02:26:29.918Z,13.29
2023-04-18T02:28:58.796Z,13.55
2023-04-18T02:31:26.915Z,13.54
2023-04-18T02:33:54.350Z,13.45
2023-04-18T02:36:23.351Z,13.48
2023-04-18T02:38:51.056Z,13.30
2023-04-18T02:41:21.126Z,13.56
2023-04-18T02:43:48.604Z,13.48
2023-04-18T02:46:16.717Z,13.36
2023-04-18T02:48:45.634Z,13.47
2023-04-18T02:51:13.617Z,13.51
2023-04-18T02:53:42.032Z,13.38
2023-04-18T02:56:09.609Z,13.51
2023-04-18T02:58:38.725Z,13.26
2023-04-18T03:01:07.671Z,13.37
2023-04-18T03:03:37.290Z,13.83
2023-04-18T03:06:06.572Z,13.85
2023-04-18T03:08:34.622Z,14.29
2023-04-18T03:11:02.061Z,14.09
2023-04-18T03:13:30.512Z,14.52
2023-04-18T03:15:59.038Z,14.75
2023-04-18T03:18:27.022Z,14.81
2023-04-18T03:20:55.082Z,15.18
2023-04-18T03:23:22.941Z,14.98
2023-04-18T03:25:50.399Z,14.93
2023-04-18T03:28:17.840Z,14.68
2023-04-18T03:30:45.676Z,14.74
2023-04-18T03:33:14.820Z,14.60
2023-04-18T03:35:43.237Z,14.87
2023-04-18T03:38:10.914Z,14.82
2023-04-18T03:40:38.590Z,14.73
2023-04-18T03:43:06.302Z,14.55
2023-04-18T03:45:34.203Z,14.84
2023-04-18T03:48:01.846Z,14.21
2023-04-18T03:50:30.189Z,13.56
2023-04-18T03:52:58.269Z,14.16
2023-04-18T03:55:26.543Z,14.50
2023-04-18T03:57:53.961Z,14.29
2023-04-18T04:00:22.259Z,14.96
2023-04-18T04:02:51.254Z,14.42
2023-04-18T04:05:19.655Z,14.15
2023-04-18T04:07:47.240Z,13.81
2023-04-18T04:10:15.204Z,14.03
2023-04-18T04:12:42.741Z,13.63
2023-04-18T04:15:11.172Z,13.53
2023-04-18T04:17:39.661Z,13.55
2023-04-18T04:20:08.093Z,13.34
2023-04-18T04:22:36.940Z,13.25
2023-04-18T04:25:05.600Z,13.31
2023-04-18T04:27:36.808Z,13.36
2023-04-18T04:30:06.689Z,13.15
2023-04-18T04:32:35.614Z,13.25
2023-04-18T04:35:03.079Z,13.35
2023-04-18T04:37:30.571Z,13.59
2023-04-18T04:40:00.877Z,13.36
2023-04-18T04:42:29.428Z,13.76
2023-04-18T04:44:57.273Z,13.49
2023-04-18T04:47:26.077Z,13.62
2023-04-18T04:49:54.626Z,13.98
2023-04-18T04:52:22.056Z,14.03
2023-04-18T04:54:51.619Z,13.64
2023-04-18T04:57:19.521Z,13.80
2023-04-18T04:59:46.923Z,13.52
2023-04-18T05:02:14.801Z,13.72
2023-04-18T05:04:54.531Z,13.35
2023-04-18T05:07:22.249Z,13.80
2023-04-18T05:09:49.837Z,13.30
2023-04-18T05:12:17.597Z,13.28
2023-04-18T05:14:45.298Z,13.91
2023-04-18T05:17:12.889Z,13.53
2023-04-18T05:19:40.827Z,13.32
2023-04-18T05:22:08.503Z,13.75
2023-04-18T05:24:36.093Z,13.49
2023-04-18T05:27:03.560Z,13.59
2023-04-18T05:29:31.278Z,13.90
2023-04-18T05:31:59.488Z,13.48
2023-04-18T05:34:27.574Z,13.57
2023-04-18T05:36:55.330Z,13.68
2023-04-18T05:39:22.969Z,13.66
2023-04-18T05:41:50.382Z,13.88
2023-04-18T05:44:18.400Z,14.35
2023-04-18T05:46:46.515Z,14.10
2023-04-18T05:49:14.719Z,14.39
2023-04-18T05:51:42.385Z,14.63
2023-04-18T05:54:09.983Z,15.13
2023-04-18T05:56:37.642Z,14.87
2023-04-18T05:59:05.405Z,14.36
2023-04-18T06:01:33.533Z,15.46
2023-04-18T06:04:01.715Z,15.11
2023-04-18T06:06:29.273Z,15.44
2023-04-18T06:08:56.672Z,15.32
2023-04-18T06:11:24.241Z,15.06
2023-04-18T06:13:51.468Z,15.26
2023-04-18T06:16:18.690Z,15.50
2023-04-18T06:18:46.205Z,14.78
2023-04-18T06:21:13.897Z,15.04
2023-04-18T06:23:41.089Z,14.62
2023-04-18T06:26:09.287Z,14.71
2023-04-18T06:28:36.458Z,14.32
2023-04-18T06:31:03.625Z,14.45
2023-04-18T06:33:31.166Z,13.87
2023-04-18T06:35:58.376Z,14.21
2023-04-18T06:38:25.795Z,14.45
2023-04-18T06:40:53.327Z,14.05
2023-04-18T06:43:22.044Z,14.26
2023-04-18T06:45:49.270Z,14.27
2023-04-18T06:48:16.727Z,14.82
2023-04-18T06:50:43.993Z,14.44
2023-04-18T06:53:11.204Z,14.69
2023-04-18T06:55:38.604Z,14.42
2023-04-18T06:58:05.890Z,14.74
2023-04-18T07:00:33.039Z,14.87
2023-04-18T07:03:02.199Z,14.90
2023-04-18T07:05:29.509Z,14.58
2023-04-18T07:07:56.820Z,14.88
2023-04-18T07:10:26.458Z,14.96
2023-04-18T07:12:53.847Z,15.21
2023-04-18T07:15:21.709Z,15.32
2023-04-18T07:17:49.509Z,15.41
2023-04-18T07:20:16.969Z,15.50
2023-04-18T07:22:44.536Z,15.44
2023-04-18T07:25:12.234Z,15.46
2023-04-18T07:27:40.825Z,15.86
2023-04-18T07:30:09.260Z,15.84
2023-04-18T07:32:36.915Z,16.05
2023-04-18T07:35:04.507Z,15.94
2023-04-18T07:37:32.006Z,16.37
2023-04-18T07:39:59.688Z,16.50
2023-04-18T07:42:27.192Z,16.89
2023-04-18T07:45:00.686Z,16.77
2023-04-18T07:47:30.114Z,16.92
2023-04-18T07:49:58.634Z,17.03
2023-04-18T07:52:26.316Z,17.29
2023-04-18T07:54:53.989Z,17.09
2023-04-18T07:57:21.727Z,17.18
2023-04-18T07:59:53.104Z,17.06
2023-04-18T08:02:21.600Z,17.43
2023-04-18T08:04:50.059Z,18.39
2023-04-18T08:07:17.666Z,18.45
2023-04-18T08:09:45.246Z,19.08
2023-04-18T08:12:13.133Z,18.85
2023-04-18T08:14:41.344Z,18.74
2023-04-18T08:17:08.723Z,18.89
2023-04-18T08:19:36.477Z,18.42
2023-04-18T08:22:09.502Z,18.33
2023-04-18T08:24:46.456Z,18.07
2023-04-18T08:27:18.948Z,17.95
2023-04-18T08:29:46.684Z,18.10
2023-04-18T08:32:14.228Z,18.19
2023-04-18T08:34:42.401Z,18.14
2023-04-18T08:37:11.059Z,18.04
2023-04-18T08:39:38.648Z,18.21
2023-04-18T08:42:06.522Z,17.42
2023-04-18T08:44:34.298Z,17.53
2023-04-18T08:47:01.932Z,18.00
2023-04-18T08:49:31.536Z,17.53
2023-04-18T08:52:01.109Z,17.81
2023-04-18T08:54:30.541Z,18.11
2023-04-18T08:57:08.714Z,18.17
2023-04-18T08:59:36.816Z,18.69
2023-04-18T09:02:06.380Z,18.78
2023-04-18T09:04:36.772Z,19.05
2023-04-18T09:07:07.186Z,18.91
2023-04-18T09:09:45.920Z,19.82
2023-04-18T09:12:18.256Z,20.09
2023-04-18T09:14:47.780Z,19.64
2023-04-18T09:17:18.384Z,19.44
2023-04-18T09:19:48.933Z,19.11
2023-04-18T09:22:17.955Z,19.55
2023-04-18T09:24:55.527Z,20.12
2023-04-18T09:27:24.286Z,20.05
2023-04-18T09:29:55.855Z,19.36
2023-04-18T09:32:27.521Z,19.58
2023-04-18T09:34:58.266Z,19.69
2023-04-18T09:37:26.661Z,19.76
2023-04-18T09:39:54.706Z,19.73
2023-04-18T09:42:22.523Z,19.61
2023-04-18T09:45:05.114Z,19.01
2023-04-18T09:47:37.794Z,18.72
2023-04-18T09:50:07.941Z,18.97
2023-04-18T09:52:37.781Z,18.79
2023-04-18T09:55:07.415Z,19.13
2023-04-18T09:57:36.710Z,19.27
2023-04-18T10:00:17.512Z,19.87
2023-04-18T10:02:54.402Z,19.76
2023-04-18T10:05:27.025Z,19.78
2023-04-18T10:07:55.229Z,19.67
2023-04-18T10:10:22.922Z,19.37
2023-04-18T10:12:55.789Z,19.86
2023-04-18T10:15:26.855Z,19.89
2023-04-18T10:18:04.321Z,19.56
2023-04-18T10:20:34.978Z,19.42
2023-04-18T10:23:31.491Z,19.82
2023-04-18T10:25:59.549Z,20.69
2023-04-18T10:28:28.188Z,20.11
2023-04-18T10:31:02.972Z,20.41
2023-04-18T10:33:32.462Z,19.97
2023-04-18T10:36:15.043Z,20.53
2023-04-18T10:38:53.508Z,20.54
2023-04-18T10:41:28.698Z,20.85
2023-04-18T10:44:18.813Z,20.87
2023-04-18T10:46:52.408Z,20.97
2023-04-18T10:49:27.818Z,21.17
2023-04-18T10:51:58.786Z,21.52
2023-04-18T10:54:33.056Z,21.14
2023-04-18T10:57:03.678Z,20.59
2023-04-18T10:59:32.924Z,20.51
2023-04-18T11:02:22.985Z,20.69
2023-04-18T11:04:55.050Z,20.16
2023-04-18T11:07:46.083Z,19.77
2023-04-18T11:10:17.844Z,20.45
2023-04-18T11:12:45.909Z,19.39
2023-04-18T11:15:17.729Z,19.75
2023-04-18T11:17:45.270Z,19.36
2023-04-18T11:20:14.795Z,19.86
2023-04-18T11:22:58.453Z,19.97
2023-04-18T11:25:31.937Z,19.58
2023-04-18T11:28:01.591Z,19.63
2023-04-18T11:30:39.787Z,20.21
2023-04-18T11:33:11.737Z,19.71
2023-04-18T11:35:43.376Z,19.96
2023-04-18T11:38:15.924Z,20.07
2023-04-18T11:40:50.089Z,19.99
2023-04-18T11:43:23.404Z,20.02
2023-04-18T11:45:59.590Z,19.80
2023-04-18T11:48:42.048Z,19.42
2023-04-18T11:51:35.956Z,19.07
2023-04-18T11:54:04.031Z,19.12
2023-04-18T11:56:32.267Z,18.91
2023-04-18T11:59:09.018Z,19.10
2023-04-18T12:01:36.889Z,19.07
2023-04-18T12:04:06.678Z,18.92
2023-04-18T12:06:51.352Z,18.73
2023-04-18T12:09:21.160Z,18.80
2023-04-18T12:11:59.680Z,18.98
2023-04-18T12:14:28.400Z,19.58
2023-04-18T12:16:56.265Z,19.51
2023-04-18T12:19:28.207Z,19.53
2023-04-18T12:21:57.864Z,19.28
2023-04-18T12:24:25.278Z,19.50
2023-04-18T12:26:53.073Z,20.22
2023-04-18T12:29:21.285Z,19.14
2023-04-18T12:31:48.730Z,19.09
2023-04-18T12:34:16.250Z,18.91
2023-04-18T12:36:44.051Z,18.72
2023-04-18T12:39:11.518Z,18.26
2023-04-18T12:41:38.937Z,18.65
2023-04-18T12:44:06.808Z,19.08
2023-04-18T12:46:34.429Z,19.32
2023-04-18T12:49:02.038Z,19.64
2023-04-18T12:51:31.474Z,19.35
2023-04-18T12:53:59.012Z,19.31
2023-04-18T12:56:26.384Z,19.52
2023-04-18T12:58:54.105Z,19.86
2023-04-18T13:01:22.048Z,20.14
2023-04-18T13:03:59.817Z,20.30
2023-04-18T13:06:37.682Z,20.00
2023-04-18T13:09:07.281Z,19.83
2023-04-18T13:11:34.629Z,19.52
2023-04-18T13:14:02.388Z,19.39
2023-04-18T13:16:29.803Z,19.39
2023-04-18T13:18:57.217Z,19.55
2023-04-18T13:21:25.941Z,19.54
2023-04-18T13:23:53.431Z,19.22
2023-04-18T13:26:20.880Z,19.38
2023-04-18T13:28:50.589Z,19.91
2023-04-18T13:31:18.078Z,19.79
2023-04-18T13:33:45.691Z,19.39
2023-04-18T13:36:13.432Z,19.18
2023-04-18T13:38:41.332Z,19.38
2023-04-18T13:41:12.148Z,19.06
2023-04-18T13:43:40.951Z,18.94
2023-04-18T13:46:08.648Z,19.10
2023-04-18T13:48:36.221Z,19.12
2023-04-18T13:51:03.997Z,19.13
2023-04-18T13:53:31.459Z,19.14
2023-04-18T13:55:59.222Z,19.40
2023-04-18T13:58:27.340Z,19.90
2023-04-18T14:00:54.880Z,19.77
2023-04-18T14:03:22.688Z,19.93
2023-04-18T14:05:50.520Z,20.27
2023-04-18T14:08:18.523Z,20.38
2023-04-18T14:10:47.429Z,20.79
2023-04-18T14:13:15.019Z,20.52
2023-04-18T14:15:42.473Z,20.72
2023-04-18T14:18:10.262Z,20.45
2023-04-18T14:20:37.843Z,20.17
2023-04-18T14:23:05.311Z,20.49
2023-04-18T14:25:33.110Z,20.28
2023-04-18T14:28:09.738Z,20.53
2023-04-18T14:30:39.090Z,20.31
2023-04-18T14:33:08.612Z,20.11
2023-04-18T14:35:36.154Z,20.57
2023-04-18T14:38:04.080Z,20.58
2023-04-18T14:40:33.021Z,20.52
2023-04-18T14:43:00.598Z,20.79
2023-04-18T14:45:28.465Z,20.80
2023-04-18T14:47:56.113Z,20.39
2023-04-18T14:50:23.879Z,20.48
2023-04-18T14:52:51.560Z,20.74
2023-04-18T14:55:21.872Z,21.12
2023-04-18T14:57:49.315Z,20.99
2023-04-18T15:00:17.336Z,21.07
2023-04-18T15:02:45.106Z,20.71
2023-04-18T15:05:13.275Z,20.97
2023-04-18T15:07:42.933Z,21.08
2023-04-18T15:10:12.679Z,21.18
2023-04-18T15:12:40.247Z,20.81
2023-04-18T15:15:08.260Z,20.41
2023-04-18T15:17:35.995Z,20.03
2023-04-18T15:20:07.040Z,20.30
2023-04-18T15:22:35.725Z,20.33
2023-04-18T15:25:04.496Z,20.46
2023-04-18T15:27:31.949Z,20.35
2023-04-18T15:29:59.649Z,20.56
2023-04-18T15:32:27.213Z,20.37
2023-04-18T15:34:54.642Z,20.56
2023-04-18T15:37:22.423Z,20.49
2023-04-18T15:39:49.911Z,20.59
2023-04-18T15:42:17.313Z,20.58
2023-04-18T15:44:45.062Z,20.51
2023-04-18T15:47:12.453Z,20.23
2023-04-18T15:49:40.419Z,20.07
2023-04-18T15:52:08.463Z,20.26
2023-04-18T15:54:35.895Z,20.45
2023-04-18T15:57:03.434Z,20.35
2023-04-18T15:59:31.386Z,20.57
2023-04-18T16:01:59.075Z,20.75
2023-04-18T16:04:27.096Z,20.69
2023-04-18T16:06:54.840Z,20.78
2023-04-18T16:09:22.446Z,20.62
2023-04-18T16:11:50.303Z,19.94
2023-04-18T16:14:17.676Z,19.86
2023-04-18T16:16:45.200Z,20.32
2023-04-18T16:19:13.059Z,20.00
2023-04-18T16:21:40.762Z,19.63
2023-04-18T16:24:08.147Z,19.55
2023-04-18T16:26:36.236Z,19.98
2023-04-18T16:29:03.670Z,20.01
2023-04-18T16:31:31.488Z,20.12
2023-04-18T16:33:59.792Z,20.26
2023-04-18T16:36:27.933Z,20.18
2023-04-18T16:38:55.410Z,19.95
2023-04-18T16:41:23.214Z,20.01
2023-04-18T16:43:51.799Z,20.03
2023-04-18T16:46:19.320Z,19.78
2023-04-18T16:48:47.132Z,19.63
2023-04-18T16:51:14.681Z,19.60
2023-04-18T16:53:42.354Z,19.51
2023-04-18T16:56:10.120Z,19.40
2023-04-18T16:58:37.838Z,19.23
2023-04-18T17:01:08.108Z,19.22
2023-04-18T17:03:36.693Z,19.21
2023-04-18T17:06:05.235Z,19.20
2023-04-18T17:08:34.046Z,19.11
2023-04-18T17:11:02.464Z,19.13
2023-04-18T17:13:31.647Z,19.12
2023-04-18T17:15:59.156Z,19.12
2023-04-18T17:18:27.103Z,19.01
2023-04-18T17:20:54.592Z,18.90
2023-04-18T17:23:23.002Z,19.11
2023-04-18T17:25:51.559Z,18.91
2023-04-18T17:28:21.703Z,18.82
2023-04-18T17:30:50.479Z,18.71
2023-04-18T17:33:18.810Z,18.71
2023-04-18T17:35:47.149Z,18.66
2023-04-18T17:38:14.896Z,18.82
2023-04-18T17:40:42.931Z,18.55
2023-04-18T17:43:11.987Z,18.32
2023-04-18T17:45:40.448Z,18.15
2023-04-18T17:48:08.720Z,18.22
2023-04-18T17:50:38.375Z,18.20
2023-04-18T17:53:06.294Z,18.20
2023-04-18T17:55:34.600Z,18.14
2023-04-18T17:58:02.457Z,17.97
2023-04-18T18:00:31.335Z,17.84
2023-04-18T18:03:01.920Z,17.66
2023-04-18T18:05:30.916Z,17.62
2023-04-18T18:08:00.468Z,17.35
2023-04-18T18:10:30.078Z,17.38
2023-04-18T18:12:58.933Z,17.23
2023-04-18T18:15:27.901Z,17.20
2023-04-18T18:17:59.923Z,17.06
2023-04-18T18:20:31.115Z,17.15
2023-04-18T18:23:01.796Z,17.67
2023-04-18T18:25:30.257Z,15.80
2023-04-18T18:27:59.440Z,16.93
2023-04-18T18:30:49.850Z,16.45
2023-04-18T18:33:18.987Z,15.97
2023-04-18T18:35:50.842Z,15.85
2023-04-18T18:38:21.366Z,15.66
2023-04-18T18:40:49.685Z,15.59
2023-04-18T18:43:19.826Z,15.69
2023-04-18T18:45:48.574Z,15.73
2023-04-18T18:48:17.315Z,15.62
2023-04-18T18:50:45.112Z,15.70
2023-04-18T18:53:17.969Z,15.15
2023-04-18T18:55:46.709Z,15.16
2023-04-18T18:58:15.131Z,15.13
2023-04-18T19:00:43.292Z,15.46
2023-04-18T19:03:13.401Z,15.45
2023-04-18T19:05:42.043Z,15.41
2023-04-18T19:08:12.375Z,15.34
2023-04-18T19:10:43.526Z,15.33
2023-04-18T19:13:12.280Z,14.71
2023-04-18T19:15:41.178Z,14.48
2023-04-18T19:18:10.885Z,14.23
2023-04-18T19:20:40.401Z,14.49
2023-04-18T19:23:08.643Z,14.68
2023-04-18T19:25:37.087Z,14.72
2023-04-18T19:28:08.057Z,14.45
2023-04-18T19:30:36.908Z,14.68
2023-04-18T19:33:05.291Z,14.45
2023-04-18T19:35:34.737Z,14.47
2023-04-18T19:38:04.139Z,14.52
2023-04-18T19:40:32.619Z,14.92
2023-04-18T19:43:00.890Z,14.73
2023-04-18T19:45:31.086Z,14.66
2023-04-18T19:48:03.858Z,15.06
2023-04-18T19:50:36.524Z,15.02
2023-04-18T19:53:04.896Z,15.26
2023-04-18T19:55:33.860Z,15.21
2023-04-18T19:58:02.621Z,15.24
2023-04-18T20:00:30.336Z,14.92
2023-04-18T20:02:59.677Z,14.90
2023-04-18T20:05:28.816Z,15.17
2023-04-18T20:07:57.319Z,15.41
2023-04-18T20:10:25.861Z,15.25
2023-04-18T20:12:54.154Z,15.31
2023-04-18T20:15:23.093Z,15.21
2023-04-18T20:17:53.604Z,15.80
2023-04-18T20:20:21.641Z,15.49
2023-04-18T20:22:49.752Z,15.09
2023-04-18T20:25:18.791Z,15.06
2023-04-18T20:27:50.880Z,15.67
2023-04-18T20:30:19.054Z,15.63
2023-04-18T20:32:48.078Z,15.23
2023-04-18T20:35:17.070Z,15.40
2023-04-18T20:37:44.944Z,15.26
2023-04-18T20:40:12.873Z,14.70
2023-04-18T20:42:40.850Z,15.30
2023-04-18T20:45:12.022Z,15.39
2023-04-18T20:47:41.742Z,15.55
2023-04-18T20:50:10.964Z,15.48
2023-04-18T20:52:38.607Z,14.97
2023-04-18T20:55:06.543Z,15.24
2023-04-18T20:57:34.328Z,15.47
2023-04-18T21:00:02.128Z,15.56
2023-04-18T21:02:30.512Z,15.53
2023-04-18T21:05:01.091Z,15.20
2023-04-18T21:07:29.688Z,15.35
2023-04-18T21:09:57.089Z,15.44
2023-04-18T21:12:24.707Z,15.10
2023-04-18T21:14:52.115Z,15.33
2023-04-18T21:17:19.559Z,15.47
2023-04-18T21:19:48.023Z,15.11
2023-04-18T21:22:16.176Z,15.01
2023-04-18T21:24:43.918Z,15.21
2023-04-18T21:27:11.673Z,15.04
2023-04-18T21:29:39.049Z,14.74
2023-04-18T21:32:06.452Z,14.90
2023-04-18T21:34:34.150Z,14.93
2023-04-18T21:37:01.642Z,15.04
2023-04-18T21:39:29.066Z,14.97
2023-04-18T21:41:57.298Z,15.49
2023-04-18T21:44:24.796Z,14.68
2023-04-18T21:46:52.509Z,14.20
2023-04-18T21:49:20.408Z,14.72
2023-04-18T21:51:48.990Z,15.82
2023-04-18T21:54:16.457Z,15.80
2023-04-18T21:56:44.172Z,16.19
2023-04-18T21:59:11.546Z,15.77
2023-04-18T22:01:39.202Z,16.02
2023-04-18T22:04:07.094Z,16.05
2023-04-18T22:06:34.850Z,14.98
2023-04-18T22:09:02.279Z,14.80
2023-04-18T22:11:29.980Z,14.65
2023-04-18T22:13:58.182Z,14.59
2023-04-18T22:16:25.926Z,14.31
2023-04-18T22:18:54.039Z,14.65
2023-04-18T22:21:21.501Z,14.31
2023-04-18T22:24:07.986Z,14.00
2023-04-18T22:26:35.679Z,14.17
2023-04-18T22:29:03.083Z,14.32
2023-04-18T22:31:30.749Z,14.27
2023-04-18T22:33:58.439Z,14.03
2023-04-18T22:36:27.600Z,14.29
2023-04-18T22:38:55.031Z,14.53
2023-04-18T22:41:22.696Z,14.35
2023-04-18T22:43:50.114Z,14.17
2023-04-18T22:46:17.700Z,14.09
2023-04-18T22:48:46.233Z,14.42
2023-04-18T22:51:18.260Z,14.46
2023-04-18T22:53:46.093Z,14.65
2023-04-18T22:56:13.463Z,14.85
2023-04-18T22:58:40.832Z,14.40
2023-04-18T23:01:08.552Z,14.62
2023-04-18T23:03:36.263Z,14.94
2023-04-18T23:06:03.840Z,15.06
2023-04-18T23:08:31.585Z,15.04
2023-04-18T23:10:58.973Z,14.97
2023-04-18T23:13:26.313Z,15.17
2023-04-18T23:15:54.020Z,14.64
2023-04-18T23:18:21.436Z,15.71
2023-04-18T23:20:48.825Z,14.68
2023-04-18T23:23:16.592Z,15.21
2023-04-18T23:25:44.270Z,14.87
2023-04-18T23:28:13.521Z,14.98
2023-04-18T23:30:41.201Z,14.75
2023-04-18T23:33:08.890Z,14.94
2023-04-18T23:35:36.298Z,14.84
2023-04-18T23:38:03.953Z,14.65
2023-04-18T23:40:31.372Z,14.68
2023-04-18T23:42:59.056Z,14.99
2023-04-18T23:45:26.821Z,14.71
2023-04-18T23:47:54.407Z,14.81
2023-04-18T23:50:21.836Z,14.93
2023-04-18T23:52:49.963Z,15.28
2023-04-18T23:55:17.419Z,15.41
2023-04-18T23:57:44.805Z,15.32
